sensor_id;sensor_type;location;lat;lon;timestamp;P1;durP1;ratioP1;P2;durP2;ratioP2
68944;SDS011;55984;48.790;8.990;2023-05-29T00:02:18;33.33;;;13.23;;
68944;SDS011;55984;48.790;8.990;2023-05-29T00:04:44;29.77;;;11.10;;
68944;SDS011;55984;48.790;8.990;2023-05-29T00:07:10;23.57;;;10.97;;
68944;SDS011;55984;48.790;8.990;2023-05-29T00:09:36;25.93;;;11.40;;
68944;SDS011;55984;48.790;8.990;2023-05-29T00:12:02;28.40;;;11.10;;
68944;SDS011;55984;48.790;8.990;2023-05-29T00:14:28;28.43;;;12.17;;
68944;SDS011;55984;48.790;8.990;2023-05-29T00:16:54;28.93;;;11.37;;
68944;SDS011;55984;48.790;8.990;2023-05-29T00:19:21;24.17;;;10.73;;
68944;SDS011;55984;48.790;8.990;2023-05-29T00:21:49;29.17;;;11.33;;
68944;SDS011;55984;48.790;8.990;2023-05-29T00:24:15;21.67;;;10.10;;
68944;SDS011;55984;48.790;8.990;2023-05-29T00:26:42;24.37;;;12.03;;
68944;SDS011;55984;48.790;8.990;2023-05-29T00:29:08;24.77;;;11.40;;
68944;SDS011;55984;48.790;8.990;2023-05-29T00:31:35;29.27;;;12.50;;
68944;SDS011;55984;48.790;8.990;2023-05-29T00:34:01;28.27;;;13.07;;
68944;SDS011;55984;48.790;8.990;2023-05-29T00:36:27;29.50;;;12.60;;
68944;SDS011;55984;48.790;8.990;2023-05-29T00:38:54;32.07;;;13.00;;
68944;SDS011;55984;48.790;8.990;2023-05-29T00:41:20;24.50;;;11.43;;
68944;SDS011;55984;48.790;8.990;2023-05-29T00:43:46;28.90;;;11.10;;
68944;SDS011;55984;48.790;8.990;2023-05-29T00:46:12;27.80;;;11.63;;
68944;SDS011;55984;48.790;8.990;2023-05-29T00:48:40;26.00;;;12.00;;
68944;SDS011;55984;48.790;8.990;2023-05-29T00:51:08;26.03;;;10.63;;
68944;SDS011;55984;48.790;8.990;2023-05-29T00:53:35;28.93;;;12.00;;
68944;SDS011;55984;48.790;8.990;2023-05-29T00:56:02;30.10;;;11.20;;
68944;SDS011;55984;48.790;8.990;2023-05-29T00:58:30;27.60;;;11.60;;
68944;SDS011;55984;48.790;8.990;2023-05-29T01:00:56;27.77;;;12.00;;
68944;SDS011;55984;48.790;8.990;2023-05-29T01:03:22;26.07;;;12.23;;
68944;SDS011;55984;48.790;8.990;2023-05-29T01:05:48;30.10;;;11.60;;
68944;SDS011;55984;48.790;8.990;2023-05-29T01:08:16;33.87;;;13.90;;
68944;SDS011;55984;48.790;8.990;2023-05-29T01:10:42;26.07;;;11.77;;
68944;SDS011;55984;48.790;8.990;2023-05-29T01:13:11;32.50;;;12.00;;
68944;SDS011;55984;48.790;8.990;2023-05-29T01:18:23;29.10;;;12.13;;
68944;SDS011;55984;48.790;8.990;2023-05-29T01:21:06;28.77;;;12.90;;
68944;SDS011;55984;48.790;8.990;2023-05-29T01:28:52;34.70;;;13.13;;
68944;SDS011;55984;48.790;8.990;2023-05-29T01:31:20;34.70;;;13.80;;
68944;SDS011;55984;48.790;8.990;2023-05-29T01:33:56;41.50;;;13.70;;
68944;SDS011;55984;48.790;8.990;2023-05-29T01:36:23;33.43;;;14.20;;
68944;SDS011;55984;48.790;8.990;2023-05-29T01:38:51;33.00;;;13.83;;
68944;SDS011;55984;48.790;8.990;2023-05-29T01:41:20;29.67;;;13.07;;
68944;SDS011;55984;48.790;8.990;2023-05-29T01:43:48;33.27;;;13.63;;
68944;SDS011;55984;48.790;8.990;2023-05-29T01:46:15;32.57;;;13.60;;
68944;SDS011;55984;48.790;8.990;2023-05-29T01:48:42;29.63;;;13.30;;
68944;SDS011;55984;48.790;8.990;2023-05-29T01:51:10;34.07;;;13.50;;
68944;SDS011;55984;48.790;8.990;2023-05-29T01:53:37;39.30;;;14.67;;
68944;SDS011;55984;48.790;8.990;2023-05-29T01:56:07;36.17;;;14.53;;
68944;SDS011;55984;48.790;8.990;2023-05-29T01:58:34;34.30;;;13.40;;
68944;SDS011;55984;48.790;8.990;2023-05-29T02:01:04;33.70;;;13.30;;
68944;SDS011;55984;48.790;8.990;2023-05-29T02:03:31;29.80;;;13.77;;
68944;SDS011;55984;48.790;8.990;2023-05-29T02:05:57;28.10;;;12.33;;
68944;SDS011;55984;48.790;8.990;2023-05-29T02:08:24;29.10;;;12.07;;
68944;SDS011;55984;48.790;8.990;2023-05-29T02:10:50;28.80;;;12.20;;
68944;SDS011;55984;48.790;8.990;2023-05-29T02:13:15;32.33;;;13.73;;
68944;SDS011;55984;48.790;8.990;2023-05-29T02:15:42;34.83;;;13.33;;
68944;SDS011;55984;48.790;8.990;2023-05-29T02:18:13;32.27;;;13.60;;
68944;SDS011;55984;48.790;8.990;2023-05-29T02:20:40;36.37;;;13.30;;
68944;SDS011;55984;48.790;8.990;2023-05-29T02:23:10;40.43;;;13.87;;
68944;SDS011;55984;48.790;8.990;2023-05-29T02:25:36;34.70;;;14.13;;
68944;SDS011;55984;48.790;8.990;2023-05-29T02:28:02;38.37;;;14.63;;
68944;SDS011;55984;48.790;8.990;2023-05-29T02:30:28;33.40;;;13.97;;
68944;SDS011;55984;48.790;8.990;2023-05-29T02:32:55;35.60;;;13.57;;
68944;SDS011;55984;48.790;8.990;2023-05-29T02:35:20;33.50;;;13.00;;
68944;SDS011;55984;48.790;8.990;2023-05-29T02:37:48;40.37;;;14.90;;
68944;SDS011;55984;48.790;8.990;2023-05-29T02:40:14;42.50;;;13.13;;
68944;SDS011;55984;48.790;8.990;2023-05-29T02:42:40;33.10;;;12.63;;
68944;SDS011;55984;48.790;8.990;2023-05-29T02:45:06;37.30;;;13.50;;
68944;SDS011;55984;48.790;8.990;2023-05-29T02:47:32;38.30;;;14.27;;
68944;SDS011;55984;48.790;8.990;2023-05-29T02:49:58;27.80;;;12.60;;
68944;SDS011;55984;48.790;8.990;2023-05-29T02:52:24;33.27;;;12.83;;
68944;SDS011;55984;48.790;8.990;2023-05-29T02:54:50;29.43;;;11.70;;
68944;SDS011;55984;48.790;8.990;2023-05-29T02:57:16;32.90;;;13.53;;
68944;SDS011;55984;48.790;8.990;2023-05-29T02:59:42;35.27;;;13.77;;
68944;SDS011;55984;48.790;8.990;2023-05-29T03:02:09;38.23;;;15.13;;
68944;SDS011;55984;48.790;8.990;2023-05-29T03:04:35;38.60;;;14.80;;
68944;SDS011;55984;48.790;8.990;2023-05-29T03:07:01;32.00;;;13.70;;
68944;SDS011;55984;48.790;8.990;2023-05-29T03:09:27;38.50;;;13.77;;
68944;SDS011;55984;48.790;8.990;2023-05-29T03:11:52;35.03;;;13.67;;
68944;SDS011;55984;48.790;8.990;2023-05-29T03:14:18;41.80;;;15.10;;
68944;SDS011;55984;48.790;8.990;2023-05-29T03:16:46;36.83;;;14.17;;
68944;SDS011;55984;48.790;8.990;2023-05-29T03:19:12;37.00;;;13.57;;
68944;SDS011;55984;48.790;8.990;2023-05-29T03:21:38;38.00;;;13.87;;
68944;SDS011;55984;48.790;8.990;2023-05-29T03:24:05;37.60;;;14.73;;
68944;SDS011;55984;48.790;8.990;2023-05-29T03:26:31;38.33;;;14.67;;
68944;SDS011;55984;48.790;8.990;2023-05-29T03:28:57;40.57;;;14.63;;
68944;SDS011;55984;48.790;8.990;2023-05-29T03:31:23;42.87;;;14.83;;
68944;SDS011;55984;48.790;8.990;2023-05-29T03:33:49;44.37;;;15.30;;
68944;SDS011;55984;48.790;8.990;2023-05-29T03:36:15;40.87;;;16.10;;
68944;SDS011;55984;48.790;8.990;2023-05-29T03:38:44;41.17;;;16.03;;
68944;SDS011;55984;48.790;8.990;2023-05-29T03:41:10;39.90;;;14.90;;
68944;SDS011;55984;48.790;8.990;2023-05-29T03:43:37;41.40;;;14.60;;
68944;SDS011;55984;48.790;8.990;2023-05-29T03:46:03;34.83;;;14.53;;
68944;SDS011;55984;48.790;8.990;2023-05-29T03:48:29;38.17;;;14.90;;
68944;SDS011;55984;48.790;8.990;2023-05-29T03:50:54;36.57;;;14.23;;
68944;SDS011;55984;48.790;8.990;2023-05-29T03:53:20;42.40;;;14.83;;
68944;SDS011;55984;48.790;8.990;2023-05-29T03:55:46;49.87;;;17.27;;
68944;SDS011;55984;48.790;8.990;2023-05-29T03:58:12;47.00;;;16.60;;
68944;SDS011;55984;48.790;8.990;2023-05-29T04:00:38;59.63;;;18.43;;
68944;SDS011;55984;48.790;8.990;2023-05-29T04:03:04;51.90;;;16.90;;
68944;SDS011;55984;48.790;8.990;2023-05-29T04:05:30;47.77;;;16.63;;
68944;SDS011;55984;48.790;8.990;2023-05-29T04:07:56;53.23;;;17.83;;
68944;SDS011;55984;48.790;8.990;2023-05-29T04:10:22;56.17;;;17.93;;
68944;SDS011;55984;48.790;8.990;2023-05-29T04:12:49;50.57;;;18.20;;
68944;SDS011;55984;48.790;8.990;2023-05-29T04:15:15;48.50;;;17.10;;
68944;SDS011;55984;48.790;8.990;2023-05-29T04:17:41;52.70;;;18.37;;
68944;SDS011;55984;48.790;8.990;2023-05-29T04:20:06;46.97;;;17.90;;
68944;SDS011;55984;48.790;8.990;2023-05-29T04:22:36;53.03;;;18.80;;
68944;SDS011;55984;48.790;8.990;2023-05-29T04:25:03;48.80;;;19.03;;
68944;SDS011;55984;48.790;8.990;2023-05-29T04:27:30;50.77;;;19.03;;
68944;SDS011;55984;48.790;8.990;2023-05-29T04:29:57;51.83;;;19.60;;
68944;SDS011;55984;48.790;8.990;2023-05-29T04:32:23;55.60;;;19.80;;
68944;SDS011;55984;48.790;8.990;2023-05-29T04:34:50;53.40;;;19.77;;
68944;SDS011;55984;48.790;8.990;2023-05-29T04:37:16;56.70;;;20.97;;
68944;SDS011;55984;48.790;8.990;2023-05-29T04:39:42;55.73;;;19.47;;
68944;SDS011;55984;48.790;8.990;2023-05-29T04:42:08;50.87;;;19.40;;
68944;SDS011;55984;48.790;8.990;2023-05-29T04:44:34;54.60;;;19.30;;
68944;SDS011;55984;48.790;8.990;2023-05-29T04:47:00;51.13;;;19.83;;
68944;SDS011;55984;48.790;8.990;2023-05-29T04:49:31;54.97;;;20.50;;
68944;SDS011;55984;48.790;8.990;2023-05-29T04:51:57;63.97;;;21.23;;
68944;SDS011;55984;48.790;8.990;2023-05-29T04:54:25;46.70;;;19.53;;
68944;SDS011;55984;48.790;8.990;2023-05-29T04:56:51;42.80;;;18.77;;
68944;SDS011;55984;48.790;8.990;2023-05-29T04:59:17;38.70;;;18.60;;
68944;SDS011;55984;48.790;8.990;2023-05-29T05:01:43;38.47;;;16.70;;
68944;SDS011;55984;48.790;8.990;2023-05-29T05:04:10;32.83;;;15.20;;
68944;SDS011;55984;48.790;8.990;2023-05-29T05:06:36;23.30;;;12.53;;
68944;SDS011;55984;48.790;8.990;2023-05-29T05:09:02;24.43;;;12.03;;
68944;SDS011;55984;48.790;8.990;2023-05-29T05:11:29;21.50;;;9.30;;
68944;SDS011;55984;48.790;8.990;2023-05-29T05:13:55;17.17;;;8.30;;
68944;SDS011;55984;48.790;8.990;2023-05-29T05:16:21;14.63;;;7.33;;
68944;SDS011;55984;48.790;8.990;2023-05-29T05:18:47;15.53;;;7.93;;
68944;SDS011;55984;48.790;8.990;2023-05-29T05:21:14;13.57;;;7.00;;
68944;SDS011;55984;48.790;8.990;2023-05-29T05:23:40;16.90;;;7.43;;
68944;SDS011;55984;48.790;8.990;2023-05-29T05:26:06;14.10;;;7.27;;
68944;SDS011;55984;48.790;8.990;2023-05-29T05:28:32;17.03;;;8.23;;
68944;SDS011;55984;48.790;8.990;2023-05-29T05:30:58;14.77;;;7.80;;
68944;SDS011;55984;48.790;8.990;2023-05-29T05:33:24;17.10;;;7.83;;
68944;SDS011;55984;48.790;8.990;2023-05-29T05:35:51;16.20;;;7.50;;
68944;SDS011;55984;48.790;8.990;2023-05-29T05:38:17;15.10;;;7.97;;
68944;SDS011;55984;48.790;8.990;2023-05-29T05:40:43;13.90;;;6.93;;
68944;SDS011;55984;48.790;8.990;2023-05-29T05:43:10;11.37;;;6.70;;
68944;SDS011;55984;48.790;8.990;2023-05-29T05:45:36;13.93;;;7.40;;
68944;SDS011;55984;48.790;8.990;2023-05-29T05:48:06;14.43;;;7.10;;
68944;SDS011;55984;48.790;8.990;2023-05-29T05:50:33;12.43;;;6.50;;
68944;SDS011;55984;48.790;8.990;2023-05-29T05:52:59;16.27;;;7.40;;
68944;SDS011;55984;48.790;8.990;2023-05-29T05:55:25;13.00;;;6.90;;
68944;SDS011;55984;48.790;8.990;2023-05-29T05:57:52;13.50;;;6.70;;
68944;SDS011;55984;48.790;8.990;2023-05-29T06:00:21;11.30;;;6.10;;
68944;SDS011;55984;48.790;8.990;2023-05-29T06:02:48;13.60;;;6.80;;
68944;SDS011;55984;48.790;8.990;2023-05-29T06:05:14;17.37;;;6.13;;
68944;SDS011;55984;48.790;8.990;2023-05-29T06:07:40;11.00;;;6.00;;
68944;SDS011;55984;48.790;8.990;2023-05-29T06:10:06;13.20;;;5.70;;
68944;SDS011;55984;48.790;8.990;2023-05-29T06:12:34;11.83;;;6.27;;
68944;SDS011;55984;48.790;8.990;2023-05-29T06:15:00;10.70;;;6.43;;
68944;SDS011;55984;48.790;8.990;2023-05-29T06:17:25;10.30;;;5.80;;
68944;SDS011;55984;48.790;8.990;2023-05-29T06:19:52;12.57;;;6.10;;
68944;SDS011;55984;48.790;8.990;2023-05-29T06:22:19;12.83;;;5.70;;
68944;SDS011;55984;48.790;8.990;2023-05-29T06:24:46;12.13;;;6.53;;
68944;SDS011;55984;48.790;8.990;2023-05-29T06:27:12;12.13;;;6.40;;
68944;SDS011;55984;48.790;8.990;2023-05-29T06:29:38;10.73;;;5.73;;
68944;SDS011;55984;48.790;8.990;2023-05-29T06:32:04;13.60;;;5.73;;
68944;SDS011;55984;48.790;8.990;2023-05-29T06:34:30;11.87;;;5.93;;
68944;SDS011;55984;48.790;8.990;2023-05-29T06:36:56;10.33;;;5.27;;
68944;SDS011;55984;48.790;8.990;2023-05-29T06:39:22;12.37;;;5.70;;
68944;SDS011;55984;48.790;8.990;2023-05-29T06:41:48;9.83;;;5.50;;
68944;SDS011;55984;48.790;8.990;2023-05-29T06:44:14;13.37;;;5.37;;
68944;SDS011;55984;48.790;8.990;2023-05-29T06:46:39;12.70;;;5.33;;
68944;SDS011;55984;48.790;8.990;2023-05-29T06:49:05;13.00;;;5.00;;
68944;SDS011;55984;48.790;8.990;2023-05-29T06:51:32;10.77;;;5.90;;
68944;SDS011;55984;48.790;8.990;2023-05-29T06:53:58;11.47;;;5.00;;
68944;SDS011;55984;48.790;8.990;2023-05-29T06:56:25;11.20;;;5.10;;
68944;SDS011;55984;48.790;8.990;2023-05-29T06:58:52;12.30;;;5.43;;
68944;SDS011;55984;48.790;8.990;2023-05-29T07:01:18;11.20;;;5.30;;
68944;SDS011;55984;48.790;8.990;2023-05-29T07:03:45;11.83;;;5.17;;
68944;SDS011;55984;48.790;8.990;2023-05-29T07:06:12;10.00;;;5.17;;
68944;SDS011;55984;48.790;8.990;2023-05-29T07:08:38;11.20;;;5.33;;
68944;SDS011;55984;48.790;8.990;2023-05-29T07:11:04;11.60;;;5.13;;
68944;SDS011;55984;48.790;8.990;2023-05-29T07:13:30;10.83;;;5.63;;
68944;SDS011;55984;48.790;8.990;2023-05-29T07:15:56;11.13;;;5.80;;
68944;SDS011;55984;48.790;8.990;2023-05-29T07:18:21;10.50;;;5.63;;
68944;SDS011;55984;48.790;8.990;2023-05-29T07:20:48;12.30;;;5.80;;
68944;SDS011;55984;48.790;8.990;2023-05-29T07:23:14;13.20;;;5.90;;
68944;SDS011;55984;48.790;8.990;2023-05-29T07:25:39;9.73;;;5.17;;
68944;SDS011;55984;48.790;8.990;2023-05-29T07:28:05;10.70;;;5.43;;
68944;SDS011;55984;48.790;8.990;2023-05-29T07:30:31;11.07;;;5.90;;
68944;SDS011;55984;48.790;8.990;2023-05-29T07:32:57;8.70;;;5.40;;
68944;SDS011;55984;48.790;8.990;2023-05-29T07:35:23;8.53;;;5.23;;
68944;SDS011;55984;48.790;8.990;2023-05-29T07:37:49;10.97;;;5.40;;
68944;SDS011;55984;48.790;8.990;2023-05-29T07:40:17;11.50;;;6.30;;
68944;SDS011;55984;48.790;8.990;2023-05-29T07:42:43;15.53;;;6.03;;
68944;SDS011;55984;48.790;8.990;2023-05-29T07:45:10;11.07;;;5.83;;
68944;SDS011;55984;48.790;8.990;2023-05-29T07:47:36;11.43;;;5.53;;
68944;SDS011;55984;48.790;8.990;2023-05-29T07:50:02;9.17;;;5.43;;
68944;SDS011;55984;48.790;8.990;2023-05-29T07:52:28;9.37;;;5.47;;
68944;SDS011;55984;48.790;8.990;2023-05-29T07:54:54;9.60;;;5.60;;
68944;SDS011;55984;48.790;8.990;2023-05-29T07:57:20;14.10;;;6.23;;
68944;SDS011;55984;48.790;8.990;2023-05-29T07:59:46;10.23;;;5.70;;
68944;SDS011;55984;48.790;8.990;2023-05-29T08:02:16;11.67;;;5.87;;
68944;SDS011;55984;48.790;8.990;2023-05-29T08:04:42;10.43;;;5.80;;
68944;SDS011;55984;48.790;8.990;2023-05-29T08:07:08;11.77;;;5.47;;
68944;SDS011;55984;48.790;8.990;2023-05-29T08:09:35;10.63;;;5.97;;
68944;SDS011;55984;48.790;8.990;2023-05-29T08:12:01;12.17;;;6.10;;
68944;SDS011;55984;48.790;8.990;2023-05-29T08:14:27;11.90;;;5.90;;
68944;SDS011;55984;48.790;8.990;2023-05-29T08:16:54;9.53;;;5.53;;
68944;SDS011;55984;48.790;8.990;2023-05-29T08:19:19;9.60;;;5.50;;
68944;SDS011;55984;48.790;8.990;2023-05-29T08:21:45;10.37;;;5.83;;
68944;SDS011;55984;48.790;8.990;2023-05-29T08:24:11;11.60;;;5.83;;
68944;SDS011;55984;48.790;8.990;2023-05-29T08:26:37;13.13;;;5.70;;
68944;SDS011;55984;48.790;8.990;2023-05-29T08:29:03;13.07;;;5.63;;
68944;SDS011;55984;48.790;8.990;2023-05-29T08:31:29;9.30;;;5.13;;
68944;SDS011;55984;48.790;8.990;2023-05-29T08:33:55;13.93;;;6.40;;
68944;SDS011;55984;48.790;8.990;2023-05-29T08:36:21;12.23;;;5.87;;
68944;SDS011;55984;48.790;8.990;2023-05-29T08:38:48;10.67;;;5.50;;
68944;SDS011;55984;48.790;8.990;2023-05-29T08:41:17;11.33;;;6.00;;
68944;SDS011;55984;48.790;8.990;2023-05-29T08:43:50;14.43;;;6.03;;
68944;SDS011;55984;48.790;8.990;2023-05-29T08:46:18;12.90;;;6.27;;
68944;SDS011;55984;48.790;8.990;2023-05-29T08:48:48;10.97;;;5.83;;
68944;SDS011;55984;48.790;8.990;2023-05-29T08:51:19;9.67;;;5.57;;
68944;SDS011;55984;48.790;8.990;2023-05-29T08:53:47;11.13;;;5.47;;
68944;SDS011;55984;48.790;8.990;2023-05-29T08:56:14;10.47;;;6.03;;
68944;SDS011;55984;48.790;8.990;2023-05-29T08:58:41;9.90;;;5.90;;
68944;SDS011;55984;48.790;8.990;2023-05-29T09:01:08;10.40;;;5.30;;
68944;SDS011;55984;48.790;8.990;2023-05-29T09:03:35;9.57;;;6.00;;
68944;SDS011;55984;48.790;8.990;2023-05-29T09:06:03;10.20;;;5.90;;
68944;SDS011;55984;48.790;8.990;2023-05-29T09:08:29;12.20;;;6.17;;
68944;SDS011;55984;48.790;8.990;2023-05-29T09:10:56;11.90;;;6.20;;
68944;SDS011;55984;48.790;8.990;2023-05-29T09:13:22;9.03;;;5.73;;
68944;SDS011;55984;48.790;8.990;2023-05-29T09:15:48;22.03;;;5.80;;
68944;SDS011;55984;48.790;8.990;2023-05-29T09:18:22;11.67;;;6.50;;
68944;SDS011;55984;48.790;8.990;2023-05-29T09:20:48;12.60;;;6.43;;
68944;SDS011;55984;48.790;8.990;2023-05-29T09:23:16;10.37;;;5.77;;
68944;SDS011;55984;48.790;8.990;2023-05-29T09:25:43;12.23;;;6.10;;
68944;SDS011;55984;48.790;8.990;2023-05-29T09:28:09;11.50;;;6.07;;
68944;SDS011;55984;48.790;8.990;2023-05-29T09:33:06;9.87;;;6.10;;
68944;SDS011;55984;48.790;8.990;2023-05-29T09:35:33;11.60;;;5.97;;
68944;SDS011;55984;48.790;8.990;2023-05-29T09:38:05;9.30;;;5.73;;
68944;SDS011;55984;48.790;8.990;2023-05-29T09:40:33;10.30;;;5.60;;
68944;SDS011;55984;48.790;8.990;2023-05-29T09:43:03;12.50;;;6.37;;
68944;SDS011;55984;48.790;8.990;2023-05-29T09:45:32;11.27;;;6.17;;
68944;SDS011;55984;48.790;8.990;2023-05-29T09:47:58;10.60;;;6.30;;
68944;SDS011;55984;48.790;8.990;2023-05-29T09:50:27;12.03;;;5.87;;
68944;SDS011;55984;48.790;8.990;2023-05-29T09:52:56;8.60;;;5.60;;
68944;SDS011;55984;48.790;8.990;2023-05-29T09:55:23;9.87;;;5.30;;
68944;SDS011;55984;48.790;8.990;2023-05-29T09:57:53;12.37;;;6.30;;
68944;SDS011;55984;48.790;8.990;2023-05-29T10:00:19;11.33;;;6.07;;
68944;SDS011;55984;48.790;8.990;2023-05-29T10:02:47;13.63;;;6.60;;
68944;SDS011;55984;48.790;8.990;2023-05-29T10:05:14;10.23;;;6.20;;
68944;SDS011;55984;48.790;8.990;2023-05-29T10:07:43;12.33;;;5.83;;
68944;SDS011;55984;48.790;8.990;2023-05-29T10:10:17;8.90;;;5.50;;
68944;SDS011;55984;48.790;8.990;2023-05-29T10:12:44;10.30;;;5.67;;
68944;SDS011;55984;48.790;8.990;2023-05-29T10:15:16;8.80;;;5.60;;
68944;SDS011;55984;48.790;8.990;2023-05-29T10:17:49;8.83;;;5.60;;
68944;SDS011;55984;48.790;8.990;2023-05-29T10:20:19;10.20;;;6.10;;
68944;SDS011;55984;48.790;8.990;2023-05-29T10:22:47;10.73;;;5.60;;
68944;SDS011;55984;48.790;8.990;2023-05-29T10:25:17;12.50;;;5.90;;
68944;SDS011;55984;48.790;8.990;2023-05-29T10:27:46;12.47;;;5.40;;
68944;SDS011;55984;48.790;8.990;2023-05-29T10:30:21;10.30;;;6.03;;
68944;SDS011;55984;48.790;8.990;2023-05-29T10:35:40;9.87;;;6.10;;
68944;SDS011;55984;48.790;8.990;2023-05-29T10:38:13;9.87;;;5.90;;
68944;SDS011;55984;48.790;8.990;2023-05-29T10:40:43;11.47;;;6.23;;
68944;SDS011;55984;48.790;8.990;2023-05-29T10:43:29;8.90;;;5.50;;
68944;SDS011;55984;48.790;8.990;2023-05-29T10:45:57;11.10;;;5.50;;
68944;SDS011;55984;48.790;8.990;2023-05-29T10:50:54;9.37;;;5.60;;
68944;SDS011;55984;48.790;8.990;2023-05-29T10:53:24;9.60;;;5.77;;
68944;SDS011;55984;48.790;8.990;2023-05-29T10:55:52;7.90;;;5.07;;
68944;SDS011;55984;48.790;8.990;2023-05-29T10:58:21;11.63;;;5.50;;
68944;SDS011;55984;48.790;8.990;2023-05-29T11:00:49;12.43;;;5.37;;
68944;SDS011;55984;48.790;8.990;2023-05-29T11:03:22;10.77;;;5.50;;
68944;SDS011;55984;48.790;8.990;2023-05-29T11:06:22;9.70;;;5.47;;
68944;SDS011;55984;48.790;8.990;2023-05-29T11:08:46;10.10;;;5.70;;
68944;SDS011;55984;48.790;8.990;2023-05-29T11:13:54;10.13;;;5.40;;
68944;SDS011;55984;48.790;8.990;2023-05-29T11:18:56;8.53;;;5.40;;
68944;SDS011;55984;48.790;8.990;2023-05-29T11:24:13;9.53;;;5.00;;
68944;SDS011;55984;48.790;8.990;2023-05-29T11:26:51;9.53;;;4.87;;
68944;SDS011;55984;48.790;8.990;2023-05-29T11:29:28;9.90;;;5.00;;
68944;SDS011;55984;48.790;8.990;2023-05-29T11:31:56;7.93;;;4.80;;
68944;SDS011;55984;48.790;8.990;2023-05-29T11:34:26;8.93;;;5.03;;
68944;SDS011;55984;48.790;8.990;2023-05-29T11:36:54;8.70;;;5.20;;
68944;SDS011;55984;48.790;8.990;2023-05-29T11:39:23;8.83;;;4.83;;
68944;SDS011;55984;48.790;8.990;2023-05-29T11:41:50;9.00;;;5.07;;
68944;SDS011;55984;48.790;8.990;2023-05-29T11:44:17;7.17;;;4.60;;
68944;SDS011;55984;48.790;8.990;2023-05-29T11:46:43;9.77;;;4.80;;
68944;SDS011;55984;48.790;8.990;2023-05-29T11:49:09;7.90;;;4.43;;
68944;SDS011;55984;48.790;8.990;2023-05-29T11:51:34;8.40;;;5.20;;
68944;SDS011;55984;48.790;8.990;2023-05-29T11:54:01;7.83;;;4.53;;
68944;SDS011;55984;48.790;8.990;2023-05-29T11:56:28;9.73;;;4.60;;
68944;SDS011;55984;48.790;8.990;2023-05-29T11:58:55;12.00;;;5.03;;
68944;SDS011;55984;48.790;8.990;2023-05-29T12:01:25;11.43;;;5.20;;
68944;SDS011;55984;48.790;8.990;2023-05-29T12:03:53;9.03;;;5.17;;
68944;SDS011;55984;48.790;8.990;2023-05-29T12:06:34;9.97;;;5.03;;
68944;SDS011;55984;48.790;8.990;2023-05-29T12:09:03;7.10;;;4.33;;
68944;SDS011;55984;48.790;8.990;2023-05-29T12:11:30;9.47;;;4.83;;
68944;SDS011;55984;48.790;8.990;2023-05-29T12:13:57;9.97;;;4.97;;
68944;SDS011;55984;48.790;8.990;2023-05-29T12:16:25;7.23;;;4.33;;
68944;SDS011;55984;48.790;8.990;2023-05-29T12:18:56;14.00;;;4.97;;
68944;SDS011;55984;48.790;8.990;2023-05-29T12:21:22;11.33;;;4.60;;
68944;SDS011;55984;48.790;8.990;2023-05-29T12:23:51;9.10;;;4.90;;
68944;SDS011;55984;48.790;8.990;2023-05-29T12:26:18;12.00;;;5.73;;
68944;SDS011;55984;48.790;8.990;2023-05-29T12:28:48;9.40;;;4.40;;
68944;SDS011;55984;48.790;8.990;2023-05-29T12:31:29;8.93;;;5.03;;
68944;SDS011;55984;48.790;8.990;2023-05-29T12:34:06;8.00;;;5.27;;
68944;SDS011;55984;48.790;8.990;2023-05-29T12:36:34;8.23;;;4.50;;
68944;SDS011;55984;48.790;8.990;2023-05-29T12:39:00;8.07;;;4.80;;
68944;SDS011;55984;48.790;8.990;2023-05-29T12:41:33;7.80;;;4.70;;
68944;SDS011;55984;48.790;8.990;2023-05-29T12:44:02;8.20;;;5.00;;
68944;SDS011;55984;48.790;8.990;2023-05-29T12:46:34;9.17;;;4.50;;
68944;SDS011;55984;48.790;8.990;2023-05-29T12:51:40;9.80;;;4.83;;
68944;SDS011;55984;48.790;8.990;2023-05-29T12:54:08;8.10;;;4.40;;
68944;SDS011;55984;48.790;8.990;2023-05-29T12:56:36;8.30;;;4.60;;
68944;SDS011;55984;48.790;8.990;2023-05-29T12:59:05;9.40;;;4.40;;
68944;SDS011;55984;48.790;8.990;2023-05-29T13:01:31;7.13;;;4.10;;
68944;SDS011;55984;48.790;8.990;2023-05-29T13:03:57;8.47;;;4.20;;
68944;SDS011;55984;48.790;8.990;2023-05-29T13:06:23;7.37;;;4.57;;
68944;SDS011;55984;48.790;8.990;2023-05-29T13:08:50;8.03;;;4.37;;
68944;SDS011;55984;48.790;8.990;2023-05-29T13:11:16;9.93;;;4.17;;
68944;SDS011;55984;48.790;8.990;2023-05-29T13:13:41;9.70;;;5.07;;
68944;SDS011;55984;48.790;8.990;2023-05-29T13:16:07;15.90;;;4.90;;
68944;SDS011;55984;48.790;8.990;2023-05-29T13:18:33;7.93;;;4.50;;
68944;SDS011;55984;48.790;8.990;2023-05-29T13:20:59;8.73;;;4.50;;
68944;SDS011;55984;48.790;8.990;2023-05-29T13:23:25;7.40;;;4.60;;
68944;SDS011;55984;48.790;8.990;2023-05-29T13:25:51;8.40;;;4.53;;
68944;SDS011;55984;48.790;8.990;2023-05-29T13:28:18;8.90;;;4.60;;
68944;SDS011;55984;48.790;8.990;2023-05-29T13:30:43;7.73;;;4.20;;
68944;SDS011;55984;48.790;8.990;2023-05-29T13:33:09;7.33;;;4.60;;
68944;SDS011;55984;48.790;8.990;2023-05-29T13:35:35;8.67;;;4.37;;
68944;SDS011;55984;48.790;8.990;2023-05-29T13:38:02;10.53;;;4.70;;
68944;SDS011;55984;48.790;8.990;2023-05-29T13:40:27;9.60;;;4.87;;
68944;SDS011;55984;48.790;8.990;2023-05-29T13:42:53;9.13;;;5.00;;
68944;SDS011;55984;48.790;8.990;2023-05-29T13:45:20;7.57;;;4.53;;
68944;SDS011;55984;48.790;8.990;2023-05-29T13:47:46;9.77;;;5.20;;
68944;SDS011;55984;48.790;8.990;2023-05-29T13:50:11;7.90;;;4.70;;
68944;SDS011;55984;48.790;8.990;2023-05-29T13:52:38;10.27;;;5.70;;
68944;SDS011;55984;48.790;8.990;2023-05-29T13:55:04;11.27;;;5.67;;
68944;SDS011;55984;48.790;8.990;2023-05-29T13:57:33;9.23;;;5.27;;
68944;SDS011;55984;48.790;8.990;2023-05-29T14:00:01;8.87;;;5.30;;
68944;SDS011;55984;48.790;8.990;2023-05-29T14:02:28;14.53;;;8.20;;
68944;SDS011;55984;48.790;8.990;2023-05-29T14:04:54;43.17;;;25.40;;
68944;SDS011;55984;48.790;8.990;2023-05-29T14:07:20;9.63;;;6.00;;
68944;SDS011;55984;48.790;8.990;2023-05-29T14:09:45;12.53;;;5.70;;
68944;SDS011;55984;48.790;8.990;2023-05-29T14:12:12;9.27;;;5.83;;
68944;SDS011;55984;48.790;8.990;2023-05-29T14:14:38;8.63;;;4.70;;
68944;SDS011;55984;48.790;8.990;2023-05-29T14:17:03;9.70;;;4.73;;
68944;SDS011;55984;48.790;8.990;2023-05-29T14:19:30;8.33;;;4.90;;
68944;SDS011;55984;48.790;8.990;2023-05-29T14:21:56;11.27;;;4.77;;
68944;SDS011;55984;48.790;8.990;2023-05-29T14:24:22;7.47;;;4.40;;
68944;SDS011;55984;48.790;8.990;2023-05-29T14:26:49;19.40;;;11.23;;
68944;SDS011;55984;48.790;8.990;2023-05-29T14:29:15;9.17;;;5.10;;
68944;SDS011;55984;48.790;8.990;2023-05-29T14:31:42;8.50;;;4.40;;
68944;SDS011;55984;48.790;8.990;2023-05-29T14:34:09;8.40;;;5.50;;
68944;SDS011;55984;48.790;8.990;2023-05-29T14:36:36;16.67;;;9.83;;
68944;SDS011;55984;48.790;8.990;2023-05-29T14:39:02;7.70;;;4.33;;
68944;SDS011;55984;48.790;8.990;2023-05-29T14:41:29;9.77;;;4.80;;
68944;SDS011;55984;48.790;8.990;2023-05-29T14:43:55;9.00;;;5.00;;
68944;SDS011;55984;48.790;8.990;2023-05-29T14:46:23;7.93;;;4.40;;
68944;SDS011;55984;48.790;8.990;2023-05-29T14:48:53;8.37;;;4.20;;
68944;SDS011;55984;48.790;8.990;2023-05-29T14:51:19;7.77;;;4.47;;
68944;SDS011;55984;48.790;8.990;2023-05-29T14:53:46;10.10;;;4.60;;
68944;SDS011;55984;48.790;8.990;2023-05-29T14:56:12;6.50;;;4.33;;
68944;SDS011;55984;48.790;8.990;2023-05-29T14:58:37;8.50;;;4.60;;
68944;SDS011;55984;48.790;8.990;2023-05-29T15:01:04;7.43;;;4.87;;